sensor_id;sensor_type;location;lat;lon;timestamp;P1;durP1;ratioP1;P2;durP2;ratioP2
57335;SDS011;43171;50.994;18.204;2023-08-06T00:07:27;1.30;;;1.20;;
57335;SDS011;43171;50.994;18.204;2023-08-06T00:17:09;0.90;;;0.90;;
57335;SDS011;43171;50.994;18.204;2023-08-06T00:26:52;1.50;;;1.30;;
57335;SDS011;43171;50.994;18.204;2023-08-06T00:36:35;1.30;;;1.20;;
57335;SDS011;43171;50.994;18.204;2023-08-06T00:46:17;2.50;;;1.40;;
57335;SDS011;43171;50.994;18.204;2023-08-06T00:56:00;1.40;;;1.30;;
57335;SDS011;43171;50.994;18.204;2023-08-06T01:05:43;3.50;;;1.80;;
57335;SDS011;43171;50.994;18.204;2023-08-06T01:16:14;1.60;;;1.50;;
57335;SDS011;43171;50.994;18.204;2023-08-06T01:36:01;2.80;;;2.50;;
57335;SDS011;43171;50.994;18.204;2023-08-06T01:45:45;2.80;;;2.60;;
57335;SDS011;43171;50.994;18.204;2023-08-06T01:55:28;3.00;;;2.40;;
57335;SDS011;43171;50.994;18.204;2023-08-06T02:05:11;10.20;;;2.10;;
57335;SDS011;43171;50.994;18.204;2023-08-06T02:14:54;3.70;;;2.50;;
57335;SDS011;43171;50.994;18.204;2023-08-06T02:24:41;2.90;;;2.70;;
57335;SDS011;43171;50.994;18.204;2023-08-06T02:34:24;2.40;;;2.20;;
57335;SDS011;43171;50.994;18.204;2023-08-06T02:44:07;3.50;;;3.20;;
57335;SDS011;43171;50.994;18.204;2023-08-06T02:53:49;2.90;;;2.70;;
57335;SDS011;43171;50.994;18.204;2023-08-06T03:03:32;3.60;;;3.30;;
57335;SDS011;43171;50.994;18.204;2023-08-06T03:13:17;3.40;;;3.10;;
57335;SDS011;43171;50.994;18.204;2023-08-06T03:23:01;4.00;;;3.40;;
57335;SDS011;43171;50.994;18.204;2023-08-06T03:32:43;4.40;;;3.80;;
57335;SDS011;43171;50.994;18.204;2023-08-06T03:42:25;6.60;;;5.70;;
57335;SDS011;43171;50.994;18.204;2023-08-06T03:52:08;5.80;;;4.30;;
57335;SDS011;43171;50.994;18.204;2023-08-06T04:01:51;3.90;;;3.00;;
57335;SDS011;43171;50.994;18.204;2023-08-06T04:11:34;2.90;;;2.50;;
57335;SDS011;43171;50.994;18.204;2023-08-06T04:21:18;2.40;;;2.20;;
57335;SDS011;43171;50.994;18.204;2023-08-06T04:31:09;5.40;;;4.40;;
57335;SDS011;43171;50.994;18.204;2023-08-06T04:40:52;3.70;;;3.40;;
57335;SDS011;43171;50.994;18.204;2023-08-06T04:50:44;4.30;;;4.00;;
57335;SDS011;43171;50.994;18.204;2023-08-06T05:00:29;4.40;;;4.00;;
57335;SDS011;43171;50.994;18.204;2023-08-06T05:10:15;4.20;;;2.90;;
57335;SDS011;43171;50.994;18.204;2023-08-06T05:19:59;3.40;;;3.10;;
57335;SDS011;43171;50.994;18.204;2023-08-06T05:29:44;2.60;;;2.40;;
57335;SDS011;43171;50.994;18.204;2023-08-06T05:39:28;5.00;;;3.60;;
57335;SDS011;43171;50.994;18.204;2023-08-06T05:49:12;2.60;;;2.40;;
57335;SDS011;43171;50.994;18.204;2023-08-06T05:58:57;5.20;;;4.60;;
57335;SDS011;43171;50.994;18.204;2023-08-06T06:08:40;2.30;;;2.10;;
57335;SDS011;43171;50.994;18.204;2023-08-06T06:18:22;1.60;;;1.50;;
57335;SDS011;43171;50.994;18.204;2023-08-06T06:28:09;0.90;;;0.90;;
57335;SDS011;43171;50.994;18.204;2023-08-06T06:37:52;1.40;;;0.40;;
57335;SDS011;43171;50.994;18.204;2023-08-06T06:47:35;1.80;;;0.60;;
57335;SDS011;43171;50.994;18.204;2023-08-06T06:57:18;0.50;;;0.30;;
57335;SDS011;43171;50.994;18.204;2023-08-06T07:07:02;0.20;;;0.20;;
57335;SDS011;43171;50.994;18.204;2023-08-06T07:16:46;0.00;;;0.00;;
57335;SDS011;43171;50.994;18.204;2023-08-06T07:26:29;0.10;;;0.10;;
57335;SDS011;43171;50.994;18.204;2023-08-06T07:36:12;0.00;;;0.00;;
57335;SDS011;43171;50.994;18.204;2023-08-06T07:45:59;5.80;;;0.30;;
57335;SDS011;43171;50.994;18.204;2023-08-06T07:55:48;3.30;;;0.50;;
57335;SDS011;43171;50.994;18.204;2023-08-06T08:05:40;0.50;;;0.50;;
57335;SDS011;43171;50.994;18.204;2023-08-06T08:15:28;0.10;;;0.10;;
57335;SDS011;43171;50.994;18.204;2023-08-06T08:25:11;0.50;;;0.30;;
57335;SDS011;43171;50.994;18.204;2023-08-06T08:32:29;0.30;;;0.20;;
57335;SDS011;43171;50.994;18.204;2023-08-06T08:42:11;0.10;;;0.10;;
57335;SDS011;43171;50.994;18.204;2023-08-06T08:51:56;0.20;;;0.20;;
57335;SDS011;43171;50.994;18.204;2023-08-06T09:01:39;0.20;;;0.20;;
57335;SDS011;43171;50.994;18.204;2023-08-06T09:11:28;0.10;;;0.10;;
57335;SDS011;43171;50.994;18.204;2023-08-06T09:21:14;0.50;;;0.40;;
57335;SDS011;43171;50.994;18.204;2023-08-06T09:31:04;0.50;;;0.20;;
57335;SDS011;43171;50.994;18.204;2023-08-06T09:40:47;0.40;;;0.30;;
57335;SDS011;43171;50.994;18.204;2023-08-06T09:50:31;0.40;;;0.40;;
57335;SDS011;43171;50.994;18.204;2023-08-06T10:00:15;0.00;;;0.00;;
57335;SDS011;43171;50.994;18.204;2023-08-06T10:10:01;0.80;;;0.40;;
57335;SDS011;43171;50.994;18.204;2023-08-06T10:19:48;0.10;;;0.10;;
57335;SDS011;43171;50.994;18.204;2023-08-06T10:29:45;0.20;;;0.20;;
57335;SDS011;43171;50.994;18.204;2023-08-06T10:39:51;0.50;;;0.30;;
57335;SDS011;43171;50.994;18.204;2023-08-06T10:50:04;0.20;;;0.20;;
57335;SDS011;43171;50.994;18.204;2023-08-06T10:59:49;1.20;;;0.70;;
57335;SDS011;43171;50.994;18.204;2023-08-06T11:16:50;0.10;;;0.10;;
57335;SDS011;43171;50.994;18.204;2023-08-06T11:26:38;0.30;;;0.30;;
57335;SDS011;43171;50.994;18.204;2023-08-06T11:36:31;0.80;;;0.40;;
57335;SDS011;43171;50.994;18.204;2023-08-06T11:46:15;0.20;;;0.20;;
57335;SDS011;43171;50.994;18.204;2023-08-06T11:56:11;0.40;;;0.40;;
57335;SDS011;43171;50.994;18.204;2023-08-06T12:05:55;0.70;;;0.70;;
57335;SDS011;43171;50.994;18.204;2023-08-06T12:15:44;0.50;;;0.50;;
57335;SDS011;43171;50.994;18.204;2023-08-06T12:20:37;1.20;;;1.10;;
57335;SDS011;43171;50.994;18.204;2023-08-06T12:30:24;1.50;;;1.20;;
57335;SDS011;43171;50.994;18.204;2023-08-06T12:40:09;2.20;;;2.00;;
57335;SDS011;43171;50.994;18.204;2023-08-06T12:49:52;1.80;;;1.60;;
57335;SDS011;43171;50.994;18.204;2023-08-06T12:59:37;1.70;;;1.60;;
57335;SDS011;43171;50.994;18.204;2023-08-06T13:09:19;1.60;;;1.10;;
57335;SDS011;43171;50.994;18.204;2023-08-06T13:11:45;1.80;;;1.40;;
57335;SDS011;43171;50.994;18.204;2023-08-06T13:21:33;0.80;;;0.70;;
57335;SDS011;43171;50.994;18.204;2023-08-06T13:31:18;33.50;;;1.50;;
57335;SDS011;43171;50.994;18.204;2023-08-06T13:41:01;0.50;;;0.50;;
57335;SDS011;43171;50.994;18.204;2023-08-06T13:50:45;0.30;;;0.30;;
57335;SDS011;43171;50.994;18.204;2023-08-06T14:00:27;0.10;;;0.10;;
57335;SDS011;43171;50.994;18.204;2023-08-06T14:10:10;0.40;;;0.40;;
57335;SDS011;43171;50.994;18.204;2023-08-06T14:19:54;0.10;;;0.10;;
57335;SDS011;43171;50.994;18.204;2023-08-06T14:29:37;0.60;;;0.40;;
57335;SDS011;43171;50.994;18.204;2023-08-06T14:39:20;0.40;;;0.40;;
57335;SDS011;43171;50.994;18.204;2023-08-06T14:49:02;0.20;;;0.20;;
57335;SDS011;43171;50.994;18.204;2023-08-06T14:51:27;0.50;;;0.50;;
57335;SDS011;43171;50.994;18.204;2023-08-06T15:01:09;1.10;;;1.00;;
57335;SDS011;43171;50.994;18.204;2023-08-06T15:10:52;0.60;;;0.60;;
57335;SDS011;43171;50.994;18.204;2023-08-06T15:20:37;0.70;;;0.70;;
57335;SDS011;43171;50.994;18.204;2023-08-06T15:30:19;0.70;;;0.70;;
57335;SDS011;43171;50.994;18.204;2023-08-06T15:35:12;1.50;;;1.30;;
57335;SDS011;43171;50.994;18.204;2023-08-06T15:44:56;2.30;;;1.60;;
57335;SDS011;43171;50.994;18.204;2023-08-06T15:54:39;0.60;;;0.60;;
57335;SDS011;43171;50.994;18.204;2023-08-06T16:04:23;0.10;;;0.10;;
57335;SDS011;43171;50.994;18.204;2023-08-06T16:14:08;1.10;;;1.10;;
57335;SDS011;43171;50.994;18.204;2023-08-06T16:23:54;1.40;;;1.20;;
57335;SDS011;43171;50.994;18.204;2023-08-06T16:33:36;1.30;;;1.00;;
57335;SDS011;43171;50.994;18.204;2023-08-06T16:43:23;2.20;;;2.00;;
57335;SDS011;43171;50.994;18.204;2023-08-06T16:53:08;1.20;;;1.00;;
57335;SDS011;43171;50.994;18.204;2023-08-06T17:02:52;1.40;;;1.30;;
57335;SDS011;43171;50.994;18.204;2023-08-06T17:12:35;1.30;;;1.20;;
57335;SDS011;43171;50.994;18.204;2023-08-06T17:22:18;1.90;;;1.50;;
57335;SDS011;43171;50.994;18.204;2023-08-06T17:32:01;3.90;;;2.20;;
57335;SDS011;43171;50.994;18.204;2023-08-06T17:41:45;1.50;;;1.30;;
57335;SDS011;43171;50.994;18.204;2023-08-06T17:51:30;3.70;;;2.70;;
57335;SDS011;43171;50.994;18.204;2023-08-06T18:01:12;4.10;;;1.90;;
57335;SDS011;43171;50.994;18.204;2023-08-06T18:10:55;2.40;;;2.10;;
57335;SDS011;43171;50.994;18.204;2023-08-06T18:20:39;2.60;;;2.40;;
57335;SDS011;43171;50.994;18.204;2023-08-06T18:30:21;2.20;;;2.00;;
57335;SDS011;43171;50.994;18.204;2023-08-06T18:40:07;3.80;;;2.80;;
57335;SDS011;43171;50.994;18.204;2023-08-06T18:49:51;2.20;;;1.60;;
57335;SDS011;43171;50.994;18.204;2023-08-06T18:59:34;3.70;;;3.00;;
57335;SDS011;43171;50.994;18.204;2023-08-06T19:09:17;2.60;;;2.00;;
57335;SDS011;43171;50.994;18.204;2023-08-06T19:11:42;5.20;;;3.40;;
57335;SDS011;43171;50.994;18.204;2023-08-06T19:21:25;3.70;;;3.10;;
57335;SDS011;43171;50.994;18.204;2023-08-06T19:31:09;2.30;;;2.10;;
57335;SDS011;43171;50.994;18.204;2023-08-06T19:33:35;4.20;;;2.70;;
57335;SDS011;43171;50.994;18.204;2023-08-06T19:43:26;8.60;;;1.90;;
57335;SDS011;43171;50.994;18.204;2023-08-06T19:53:20;1.60;;;1.50;;
57335;SDS011;43171;50.994;18.204;2023-08-06T20:03:06;3.60;;;2.80;;
57335;SDS011;43171;50.994;18.204;2023-08-06T20:12:49;3.20;;;2.20;;
57335;SDS011;43171;50.994;18.204;2023-08-06T20:22:34;5.30;;;3.20;;
57335;SDS011;43171;50.994;18.204;2023-08-06T20:27:26;2.80;;;2.50;;
57335;SDS011;43171;50.994;18.204;2023-08-06T20:37:08;9.20;;;3.50;;
57335;SDS011;43171;50.994;18.204;2023-08-06T20:46:52;2.60;;;2.20;;
57335;SDS011;43171;50.994;18.204;2023-08-06T20:56:34;2.50;;;1.80;;
57335;SDS011;43171;50.994;18.204;2023-08-06T21:06:17;2.80;;;2.60;;
57335;SDS011;43171;50.994;18.204;2023-08-06T21:16:04;3.00;;;2.20;;
57335;SDS011;43171;50.994;18.204;2023-08-06T21:25:55;3.00;;;2.10;;
57335;SDS011;43171;50.994;18.204;2023-08-06T21:43:02;3.70;;;2.70;;
57335;SDS011;43171;50.994;18.204;2023-08-06T21:47:54;4.70;;;3.20;;
57335;SDS011;43171;50.994;18.204;2023-08-06T21:57:36;3.00;;;2.30;;
57335;SDS011;43171;50.994;18.204;2023-08-06T22:07:20;8.20;;;2.50;;
57335;SDS011;43171;50.994;18.204;2023-08-06T22:17:03;3.30;;;2.60;;
57335;SDS011;43171;50.994;18.204;2023-08-06T22:26:46;4.00;;;2.90;;
57335;SDS011;43171;50.994;18.204;2023-08-06T22:29:11;3.80;;;2.80;;
57335;SDS011;43171;50.994;18.204;2023-08-06T22:46:13;4.10;;;3.80;;
57335;SDS011;43171;50.994;18.204;2023-08-06T22:53:31;3.80;;;3.30;;
57335;SDS011;43171;50.994;18.204;2023-08-06T23:03:13;3.50;;;2.80;;
57335;SDS011;43171;50.994;18.204;2023-08-06T23:12:55;4.40;;;3.70;;
57335;SDS011;43171;50.994;18.204;2023-08-06T23:22:38;4.00;;;2.10;;
57335;SDS011;43171;50.994;18.204;2023-08-06T23:32:21;6.70;;;4.20;;
57335;SDS011;43171;50.994;18.204;2023-08-06T23:42:04;5.30;;;4.30;;
57335;SDS011;43171;50.994;18.204;2023-08-06T23:51:48;3.40;;;3.10;;
